Time;durP1;ratioP1;P1;durP2;ratioP2;P2;SDS_P1;SDS_P2;PMS_P1;PMS_P2;Temp;Humidity;BMP_temperature;BMP_pressure;BME280_temperature;BME280_humidity;BME280_pressure;Samples;Min_cycle;Max_cycle;Signal;HPM_P1;HPM_P2
2021/01/10 00:00:10;;;;;;;56.00;19.80;;;;;;;;;;4994001;28;20696;-75
2021/01/10 00:03:21;;;;;;;50.63;19.23;;;;;;;;;;4994107;28;20303;-76
2021/01/10 00:06:33;;;;;;;52.57;19.63;;;;;;;;;;4993295;28;20264;-76
2021/01/10 00:09:44;;;;;;;52.63;19.60;;;;;;;;;;4993011;28;20228;-76
2021/01/10 00:12:57;;;;;;;54.17;19.53;;;;;;;;;;4993167;28;20744;-76
2021/01/10 00:16:14;;;;;;;47.00;18.60;;;;;;;;;;4993124;28;20213;-75
2021/01/10 00:19:25;;;;;;;49.17;18.90;;;;;;;;;;4993251;28;20252;-75
2021/01/10 00:22:41;;;;;;;51.37;19.43;;;;;;;;;;5005711;28;20209;-75
2021/01/10 00:25:52;;;;;;;52.70;18.63;;;;;;;;;;5008907;28;20324;-75
2021/01/10 00:29:06;;;;;;;50.43;19.73;;;;;;;;;;4999964;28;20211;-76
2021/01/10 00:32:17;;;;;;;51.37;18.37;;;;;;;;;;4992661;28;20257;-76
2021/01/10 00:35:28;;;;;;;53.80;20.17;;;;;;;;;;4993163;28;20212;-76
2021/01/10 00:38:40;;;;;;;55.40;19.63;;;;;;;;;;4992725;28;20205;-76
2021/01/10 00:41:51;;;;;;;45.70;19.73;;;;;;;;;;4993285;28;20236;-75
2021/01/10 00:45:03;;;;;;;56.37;20.70;;;;;;;;;;4992102;28;20216;-75
2021/01/10 00:48:13;;;;;;;46.77;18.97;;;;;;;;;;4992319;28;20256;-75
2021/01/10 00:51:26;;;;;;;54.80;20.23;;;;;;;;;;4992211;28;20715;-75
2021/01/10 00:54:38;;;;;;;49.27;19.33;;;;;;;;;;4992982;28;20276;-76
2021/01/10 00:57:51;;;;;;;47.67;18.40;;;;;;;;;;4993155;28;20396;-74
2021/01/10 01:01:05;;;;;;;54.93;20.97;;;;;;;;;;4993098;28;20275;-76
2021/01/10 01:04:17;;;;;;;51.00;19.03;;;;;;;;;;4992593;28;20216;-74
2021/01/10 01:07:29;;;;;;;51.20;20.10;;;;;;;;;;4992081;28;20224;-75
2021/01/10 01:10:41;;;;;;;50.23;19.50;;;;;;;;;;4992124;28;20211;-74
2021/01/10 01:13:52;;;;;;;51.73;19.50;;;;;;;;;;4993013;28;20274;-74
2021/01/10 01:17:03;;;;;;;53.67;19.43;;;;;;;;;;4993105;28;20240;-75
2021/01/10 01:20:14;;;;;;;53.00;19.37;;;;;;;;;;4993619;28;20590;-75
2021/01/10 01:23:25;;;;;;;49.23;18.83;;;;;;;;;;4991851;28;20236;-75
2021/01/10 01:26:37;;;;;;;49.53;19.10;;;;;;;;;;4991931;28;20248;-74
2021/01/10 01:29:49;;;;;;;49.67;20.10;;;;;;;;;;4991776;28;20256;-74
2021/01/10 01:33:00;;;;;;;54.53;19.97;;;;;;;;;;4992156;28;20204;-75
2021/01/10 01:36:11;;;;;;;51.47;19.07;;;;;;;;;;4991607;28;20205;-75
2021/01/10 01:39:22;;;;;;;51.27;19.13;;;;;;;;;;4991747;28;20237;-75
2021/01/10 01:42:34;;;;;;;50.40;18.87;;;;;;;;;;4992996;28;20656;-75
2021/01/10 01:45:45;;;;;;;49.40;19.43;;;;;;;;;;4994216;28;20213;-75
2021/01/10 01:48:57;;;;;;;47.47;18.03;;;;;;;;;;4992009;28;20256;-75
2021/01/10 01:52:09;;;;;;;45.20;18.03;;;;;;;;;;4992971;28;20256;-75
2021/01/10 01:55:20;;;;;;;52.77;18.83;;;;;;;;;;4991653;28;20272;-74
2021/01/10 01:58:32;;;;;;;55.37;19.67;;;;;;;;;;4992574;28;20216;-76
2021/01/10 02:01:44;;;;;;;48.70;18.97;;;;;;;;;;4992288;28;20236;-76
2021/01/10 02:04:57;;;;;;;49.87;18.30;;;;;;;;;;4992371;28;20269;-76
2021/01/10 02:08:10;;;;;;;48.57;18.33;;;;;;;;;;4992032;28;20705;-76
2021/01/10 02:11:22;;;;;;;49.20;19.20;;;;;;;;;;4991784;28;20642;-76
2021/01/10 02:14:40;;;;;;;54.10;19.10;;;;;;;;;;4991998;28;20221;-76
2021/01/10 02:17:52;;;;;;;47.57;18.90;;;;;;;;;;4991503;28;20225;-75
2021/01/10 02:21:06;;;;;;;47.43;18.77;;;;;;;;;;4991617;28;20607;-77
2021/01/10 02:24:19;;;;;;;48.30;18.43;;;;;;;;;;4992025;28;20693;-75
2021/01/10 02:27:31;;;;;;;52.93;20.10;;;;;;;;;;4992372;28;20237;-75
2021/01/10 02:30:44;;;;;;;47.83;18.57;;;;;;;;;;4994830;28;20296;-76
2021/01/10 02:33:56;;;;;;;45.40;18.40;;;;;;;;;;4995185;28;20213;-75
2021/01/10 02:37:16;;;;;;;53.13;20.10;;;;;;;;;;4994843;28;20344;-76
2021/01/10 02:40:32;;;;;;;49.57;19.00;;;;;;;;;;4995268;28;20217;-75
2021/01/10 02:43:47;;;;;;;48.10;18.23;;;;;;;;;;4995066;28;20235;-76
2021/01/10 02:46:58;;;;;;;48.23;18.67;;;;;;;;;;4994825;28;20759;-76
2021/01/10 02:50:10;;;;;;;50.67;19.67;;;;;;;;;;5001501;28;20697;-76
2021/01/10 02:53:21;;;;;;;52.27;19.63;;;;;;;;;;5003692;28;20569;-77
2021/01/10 02:56:33;;;;;;;57.47;20.53;;;;;;;;;;5017294;28;20224;-76
2021/01/10 02:59:47;;;;;;;46.53;18.87;;;;;;;;;;4998147;28;20247;-76
2021/01/10 03:02:59;;;;;;;48.50;19.33;;;;;;;;;;4995427;28;20681;-76
2021/01/10 03:06:10;;;;;;;48.60;18.60;;;;;;;;;;4994612;28;20233;-76
2021/01/10 03:09:21;;;;;;;54.33;19.80;;;;;;;;;;4994766;28;20185;-75
2021/01/10 03:12:33;;;;;;;51.47;19.23;;;;;;;;;;4995340;28;20341;-76
2021/01/10 03:15:45;;;;;;;46.43;18.83;;;;;;;;;;4994202;28;20780;-76
2021/01/10 03:18:56;;;;;;;54.13;20.03;;;;;;;;;;4993933;28;20237;-76
2021/01/10 03:22:06;;;;;;;50.53;19.37;;;;;;;;;;4993804;28;20736;-76
2021/01/10 03:25:20;;;;;;;50.67;18.33;;;;;;;;;;5006055;28;20197;-76
2021/01/10 03:28:32;;;;;;;49.20;18.53;;;;;;;;;;5018024;28;20231;-75
2021/01/10 03:31:43;;;;;;;48.67;17.93;;;;;;;;;;5018069;28;20223;-76
2021/01/10 03:34:54;;;;;;;51.43;18.63;;;;;;;;;;5006074;28;20196;-76
2021/01/10 03:38:05;;;;;;;52.67;19.07;;;;;;;;;;4993830;28;20241;-76
2021/01/10 03:41:17;;;;;;;52.30;19.53;;;;;;;;;;4994911;28;20552;-76
2021/01/10 03:44:29;;;;;;;50.13;18.97;;;;;;;;;;4994458;28;20272;-75
2021/01/10 03:47:40;;;;;;;50.20;19.80;;;;;;;;;;4993518;28;20275;-76
2021/01/10 03:50:51;;;;;;;56.67;20.07;;;;;;;;;;4993360;28;20592;-75
2021/01/10 03:54:02;;;;;;;60.87;21.70;;;;;;;;;;4993926;28;20414;-76
2021/01/10 03:57:15;;;;;;;51.53;20.20;;;;;;;;;;4993028;28;20252;-76
2021/01/10 04:00:27;;;;;;;58.37;20.40;;;;;;;;;;4993284;28;20276;-76
2021/01/10 04:03:38;;;;;;;61.67;20.93;;;;;;;;;;4993299;28;20208;-76
2021/01/10 04:06:49;;;;;;;58.20;21.23;;;;;;;;;;4993514;28;20245;-75
2021/01/10 04:10:01;;;;;;;55.03;21.17;;;;;;;;;;4993601;28;20232;-76
2021/01/10 04:13:12;;;;;;;57.23;20.20;;;;;;;;;;4993208;28;20196;-76
2021/01/10 04:16:26;;;;;;;57.10;20.73;;;;;;;;;;5013084;28;20196;-75
2021/01/10 04:19:37;;;;;;;59.40;21.40;;;;;;;;;;5003461;28;20215;-75
2021/01/10 04:22:48;;;;;;;59.97;21.47;;;;;;;;;;5012731;28;20285;-75
2021/01/10 04:25:59;;;;;;;57.40;19.47;;;;;;;;;;4992745;28;20701;-76
2021/01/10 04:29:10;;;;;;;58.73;21.37;;;;;;;;;;4993445;28;20260;-76
2021/01/10 04:32:22;;;;;;;60.23;21.70;;;;;;;;;;4992593;28;20548;-75
2021/01/10 04:35:33;;;;;;;61.00;21.30;;;;;;;;;;4992908;28;20256;-75
2021/01/10 04:38:44;;;;;;;56.73;19.87;;;;;;;;;;4992770;28;20744;-76
2021/01/10 04:41:55;;;;;;;53.50;20.20;;;;;;;;;;4992336;28;20597;-75
2021/01/10 04:45:08;;;;;;;60.50;22.00;;;;;;;;;;4993240;28;20595;-76
2021/01/10 04:48:20;;;;;;;55.73;19.67;;;;;;;;;;4992232;28;20228;-76
2021/01/10 04:51:32;;;;;;;55.80;19.53;;;;;;;;;;4991904;28;20224;-76
2021/01/10 04:54:43;;;;;;;56.33;20.93;;;;;;;;;;4992699;28;20205;-76
2021/01/10 04:58:01;;;;;;;60.50;21.70;;;;;;;;;;4992503;28;20201;-76
2021/01/10 05:01:14;;;;;;;59.50;20.40;;;;;;;;;;4992025;28;20291;-76
2021/01/10 05:04:25;;;;;;;55.80;20.40;;;;;;;;;;4991995;28;20208;-76
2021/01/10 05:07:37;;;;;;;63.70;20.47;;;;;;;;;;4992048;28;20308;-76
2021/01/10 05:10:48;;;;;;;52.87;19.17;;;;;;;;;;4991873;28;20571;-76
2021/01/10 05:13:59;;;;;;;54.37;19.73;;;;;;;;;;4991471;28;20228;-75
2021/01/10 05:17:20;;;;;;;57.73;21.33;;;;;;;;;;4991928;28;20193;-75
2021/01/10 05:20:32;;;;;;;58.27;21.50;;;;;;;;;;4991657;28;20225;-75
2021/01/10 05:23:44;;;;;;;60.83;19.60;;;;;;;;;;4992654;28;20201;-75
2021/01/10 05:26:56;;;;;;;52.73;18.60;;;;;;;;;;4991553;28;20228;-75
2021/01/10 05:30:08;;;;;;;54.00;20.10;;;;;;;;;;4991608;28;20220;-75
2021/01/10 05:33:19;;;;;;;51.17;19.50;;;;;;;;;;4991551;28;20255;-75
2021/01/10 05:36:31;;;;;;;54.23;19.73;;;;;;;;;;4991448;28;20631;-75
2021/01/10 05:39:46;;;;;;;51.43;18.90;;;;;;;;;;4991499;28;20665;-75
2021/01/10 05:43:06;;;;;;;50.63;19.67;;;;;;;;;;4991622;28;20588;-75
2021/01/10 05:46:17;;;;;;;49.37;18.10;;;;;;;;;;4991495;28;20229;-75
2021/01/10 05:49:28;;;;;;;50.23;17.80;;;;;;;;;;4991430;28;20205;-75
2021/01/10 05:52:40;;;;;;;55.77;19.80;;;;;;;;;;4991518;28;20279;-75
2021/01/10 05:55:54;;;;;;;54.10;19.47;;;;;;;;;;4991787;28;20205;-75
2021/01/10 05:59:06;;;;;;;52.23;19.60;;;;;;;;;;4991810;28;20642;-76
2021/01/10 06:02:28;;;;;;;55.20;20.00;;;;;;;;;;4992725;28;20268;-75
2021/01/10 06:05:53;;;;;;;55.53;19.63;;;;;;;;;;4999119;28;20201;-74
2021/01/10 06:09:05;;;;;;;59.83;19.80;;;;;;;;;;5006488;28;20228;-75
2021/01/10 06:12:22;;;;;;;55.03;19.67;;;;;;;;;;5007197;28;20233;-75
2021/01/10 06:15:34;;;;;;;60.27;19.50;;;;;;;;;;4996991;28;20205;-75
2021/01/10 06:18:46;;;;;;;62.10;21.10;;;;;;;;;;4997336;28;20208;-74
2021/01/10 06:21:59;;;;;;;63.73;20.70;;;;;;;;;;4997719;28;20239;-75
2021/01/10 06:25:12;;;;;;;60.97;20.23;;;;;;;;;;4995075;28;20564;-75
2021/01/10 06:28:26;;;;;;;66.73;23.63;;;;;;;;;;4995682;28;20344;-74
2021/01/10 06:31:38;;;;;;;61.43;22.07;;;;;;;;;;4994686;28;20249;-75
2021/01/10 06:34:50;;;;;;;58.47;19.87;;;;;;;;;;4994672;28;20212;-74
2021/01/10 06:38:04;;;;;;;62.93;21.00;;;;;;;;;;4994630;28;20209;-75
2021/01/10 06:41:32;;;;;;;69.93;22.10;;;;;;;;;;4995190;28;20720;-75
2021/01/10 06:44:47;;;;;;;56.63;20.63;;;;;;;;;;4994333;28;20590;-75
2021/01/10 06:47:59;;;;;;;60.20;20.37;;;;;;;;;;4995443;28;20276;-75
2021/01/10 06:51:10;;;;;;;55.07;19.67;;;;;;;;;;4995435;28;20248;-74
2021/01/10 06:54:21;;;;;;;64.60;21.67;;;;;;;;;;4994604;28;20208;-75
2021/01/10 06:57:33;;;;;;;63.60;21.20;;;;;;;;;;4995399;28;20208;-74
2021/01/10 07:00:55;;;;;;;64.83;21.80;;;;;;;;;;4994578;28;20208;-75
2021/01/10 07:04:06;;;;;;;65.27;21.50;;;;;;;;;;4994949;28;20592;-74
2021/01/10 07:07:35;;;;;;;64.60;21.20;;;;;;;;;;5009596;28;20235;-74
2021/01/10 07:10:47;;;;;;;67.23;23.17;;;;;;;;;;5018449;28;20224;-75
2021/01/10 07:14:13;;;;;;;62.17;21.50;;;;;;;;;;4994451;28;20213;-75
2021/01/10 07:17:25;;;;;;;60.47;21.63;;;;;;;;;;4994931;28;20229;-74
2021/01/10 07:20:39;;;;;;;59.43;20.67;;;;;;;;;;4998997;28;20287;-75
2021/01/10 07:23:50;;;;;;;62.90;22.43;;;;;;;;;;5003426;28;20233;-74
2021/01/10 07:27:03;;;;;;;55.43;20.67;;;;;;;;;;4999640;28;20228;-74
2021/01/10 07:30:23;;;;;;;56.73;19.87;;;;;;;;;;4994416;28;20260;-74
2021/01/10 07:33:36;;;;;;;60.37;21.20;;;;;;;;;;4995223;28;20744;-75
2021/01/10 07:36:47;;;;;;;61.10;21.17;;;;;;;;;;4994077;28;20233;-75
2021/01/10 07:40:00;;;;;;;61.40;21.47;;;;;;;;;;4994905;28;20301;-74
2021/01/10 07:43:11;;;;;;;58.10;20.23;;;;;;;;;;4995261;28;20212;-75
2021/01/10 07:46:41;;;;;;;61.27;21.00;;;;;;;;;;4994486;28;20758;-75
2021/01/10 07:49:56;;;;;;;64.50;21.50;;;;;;;;;;4994376;28;20260;-75
2021/01/10 07:53:07;;;;;;;56.37;21.37;;;;;;;;;;4993748;28;20697;-74
2021/01/10 07:56:18;;;;;;;59.67;21.37;;;;;;;;;;4993465;28;20212;-74
2021/01/10 07:59:30;;;;;;;58.67;20.87;;;;;;;;;;4994106;28;20209;-75
2021/01/10 08:02:58;;;;;;;57.10;20.47;;;;;;;;;;4993475;28;20260;-74
2021/01/10 08:06:10;;;;;;;54.70;20.53;;;;;;;;;;4994327;28;20336;-75
2021/01/10 08:09:22;;;;;;;58.03;21.17;;;;;;;;;;4994180;28;20261;-74
2021/01/10 08:12:33;;;;;;;57.53;19.50;;;;;;;;;;4993852;28;20633;-75
2021/01/10 08:15:49;;;;;;;53.87;20.70;;;;;;;;;;4993351;28;20236;-76
2021/01/10 08:19:02;;;;;;;57.20;20.73;;;;;;;;;;5013435;28;20197;-75
2021/01/10 08:22:15;;;;;;;57.27;20.20;;;;;;;;;;5012707;28;20308;-75
2021/01/10 08:25:26;;;;;;;53.30;19.33;;;;;;;;;;5007742;28;20254;-74
2021/01/10 08:28:39;;;;;;;55.20;20.87;;;;;;;;;;4993241;28;20783;-75
2021/01/10 08:31:51;;;;;;;53.70;20.80;;;;;;;;;;4992656;28;20672;-75
2021/01/10 08:35:03;;;;;;;61.97;21.23;;;;;;;;;;4993243;28;20252;-76
2021/01/10 08:38:20;;;;;;;58.50;22.03;;;;;;;;;;4992700;28;20581;-75
2021/01/10 08:41:33;;;;;;;57.60;20.07;;;;;;;;;;4994009;28;20225;-75
2021/01/10 08:44:44;;;;;;;58.13;20.60;;;;;;;;;;4993061;28;20340;-75
2021/01/10 08:47:55;;;;;;;56.47;20.80;;;;;;;;;;4992788;28;20883;-75
2021/01/10 08:51:06;;;;;;;58.87;21.83;;;;;;;;;;4992608;28;20232;-74
2021/01/10 08:54:18;;;;;;;61.57;20.63;;;;;;;;;;4992487;28;20743;-75
2021/01/10 08:57:30;;;;;;;57.77;20.80;;;;;;;;;;4992450;28;20749;-75
2021/01/10 09:00:41;;;;;;;53.20;20.27;;;;;;;;;;4992223;28;20277;-75
2021/01/10 09:04:00;;;;;;;53.37;20.27;;;;;;;;;;4992975;28;20216;-75
2021/01/10 09:07:20;;;;;;;58.20;21.50;;;;;;;;;;4992569;28;20221;-75
2021/01/10 09:10:33;;;;;;;60.93;21.10;;;;;;;;;;4991937;28;20264;-75
2021/01/10 09:13:47;;;;;;;57.67;21.63;;;;;;;;;;4992380;28;20629;-75
2021/01/10 09:16:59;;;;;;;55.00;20.10;;;;;;;;;;4992081;28;20213;-75
2021/01/10 09:20:12;;;;;;;55.37;21.67;;;;;;;;;;4991889;28;20209;-75
2021/01/10 09:23:24;;;;;;;55.77;22.20;;;;;;;;;;4992098;28;20220;-75
2021/01/10 09:26:37;;;;;;;55.27;21.37;;;;;;;;;;4992449;28;20584;-76
2021/01/10 09:29:47;;;;;;;55.43;22.07;;;;;;;;;;4993359;28;20852;-75
2021/01/10 09:32:59;;;;;;;58.17;22.27;;;;;;;;;;4993126;28;20209;-76
2021/01/10 09:36:18;;;;;;;58.30;21.63;;;;;;;;;;4992891;28;20213;-75
2021/01/10 09:39:39;;;;;;;52.03;20.30;;;;;;;;;;4992518;28;20248;-75
2021/01/10 09:42:51;;;;;;;54.53;21.00;;;;;;;;;;4991661;28;20229;-74
2021/01/10 09:46:03;;;;;;;59.40;21.50;;;;;;;;;;4992022;28;20745;-75
2021/01/10 09:49:17;;;;;;;60.67;22.80;;;;;;;;;;4991439;28;20228;-76
2021/01/10 09:52:28;;;;;;;63.23;23.77;;;;;;;;;;4992042;28;20229;-73
2021/01/10 09:55:48;;;;;;;57.47;21.07;;;;;;;;;;4991937;28;20595;-74
2021/01/10 09:59:00;;;;;;;54.63;21.23;;;;;;;;;;4991796;28;20774;-74
2021/01/10 10:02:12;;;;;;;56.67;22.30;;;;;;;;;;4991420;28;20224;-74
2021/01/10 10:05:25;;;;;;;56.67;21.70;;;;;;;;;;4991755;28;20298;-75
2021/01/10 10:08:53;;;;;;;54.83;20.23;;;;;;;;;;4991397;28;20312;-74
2021/01/10 10:12:08;;;;;;;54.80;20.13;;;;;;;;;;4991505;28;20228;-75
2021/01/10 10:15:21;;;;;;;53.60;20.83;;;;;;;;;;4991860;28;20708;-74
2021/01/10 10:18:32;;;;;;;51.17;19.77;;;;;;;;;;4992962;28;20284;-75
2021/01/10 10:21:48;;;;;;;56.10;22.03;;;;;;;;;;4992453;28;20236;-76
2021/01/10 10:24:59;;;;;;;55.57;20.90;;;;;;;;;;4991488;28;20553;-75
2021/01/10 10:28:11;;;;;;;52.87;20.03;;;;;;;;;;4991170;28;20271;-75
2021/01/10 10:31:24;;;;;;;50.83;20.03;;;;;;;;;;4991476;28;20272;-75
2021/01/10 10:34:35;;;;;;;49.60;19.60;;;;;;;;;;4991306;28;20242;-76
2021/01/10 10:37:46;;;;;;;46.17;17.90;;;;;;;;;;4991637;28;20224;-76
2021/01/10 10:40:57;;;;;;;48.63;19.50;;;;;;;;;;4991487;28;20288;-76
2021/01/10 10:44:08;;;;;;;50.27;20.47;;;;;;;;;;4991854;28;20209;-76
2021/01/10 10:47:20;;;;;;;45.37;18.83;;;;;;;;;;4992338;28;20283;-76
2021/01/10 10:50:33;;;;;;;46.20;19.80;;;;;;;;;;4995127;28;20216;-76
2021/01/10 10:53:44;;;;;;;45.47;18.50;;;;;;;;;;4995504;28;20240;-75
2021/01/10 10:56:57;;;;;;;42.93;18.23;;;;;;;;;;4994828;28;20261;-76
2021/01/10 11:00:09;;;;;;;44.13;18.37;;;;;;;;;;4995043;28;20252;-75
2021/01/10 11:03:21;;;;;;;43.43;18.37;;;;;;;;;;4994866;28;20256;-75
2021/01/10 11:06:32;;;;;;;38.17;17.27;;;;;;;;;;4994595;28;20216;-75
2021/01/10 11:09:45;;;;;;;44.47;18.63;;;;;;;;;;4995759;28;20225;-76
2021/01/10 11:12:57;;;;;;;45.40;18.73;;;;;;;;;;4995789;28;20212;-75
2021/01/10 11:16:09;;;;;;;39.37;17.67;;;;;;;;;;5013437;28;20189;-74
2021/01/10 11:19:21;;;;;;;43.63;19.17;;;;;;;;;;5014850;28;20193;-74
2021/01/10 11:22:35;;;;;;;38.17;16.83;;;;;;;;;;5009700;28;20249;-74
2021/01/10 11:25:47;;;;;;;40.30;17.23;;;;;;;;;;5011359;28;20209;-74
2021/01/10 11:28:58;;;;;;;40.90;16.87;;;;;;;;;;5000284;28;20376;-75
2021/01/10 11:32:10;;;;;;;41.63;17.47;;;;;;;;;;4995298;28;20252;-75
2021/01/10 11:35:23;;;;;;;41.00;17.63;;;;;;;;;;4995450;28;20232;-76
2021/01/10 11:38:35;;;;;;;42.93;18.57;;;;;;;;;;4994626;28;20209;-76
2021/01/10 11:41:49;;;;;;;47.70;18.13;;;;;;;;;;4995379;28;20264;-76
2021/01/10 11:45:00;;;;;;;42.03;18.37;;;;;;;;;;4994796;28;20213;-77
2021/01/10 11:48:11;;;;;;;43.83;18.23;;;;;;;;;;4994027;28;20236;-76
2021/01/10 11:51:25;;;;;;;45.50;18.83;;;;;;;;;;4993636;28;20229;-77
2021/01/10 11:54:36;;;;;;;47.30;18.83;;;;;;;;;;4994003;28;20307;-75
2021/01/10 11:57:47;;;;;;;40.43;18.23;;;;;;;;;;4993895;28;20197;-76
2021/01/10 12:00:58;;;;;;;46.03;18.60;;;;;;;;;;4993117;28;20340;-76
2021/01/10 12:04:09;;;;;;;47.97;19.37;;;;;;;;;;4994087;28;20741;-75
2021/01/10 12:07:23;;;;;;;55.73;20.73;;;;;;;;;;4994184;28;20204;-76
2021/01/10 12:10:34;;;;;;;43.57;18.27;;;;;;;;;;4993987;28;20337;-76
2021/01/10 12:13:46;;;;;;;48.67;18.73;;;;;;;;;;4993638;28;20201;-76
2021/01/10 12:16:58;;;;;;;46.53;18.70;;;;;;;;;;4994621;28;20783;-76
2021/01/10 12:20:09;;;;;;;51.30;19.83;;;;;;;;;;4993422;28;20277;-75
2021/01/10 12:23:21;;;;;;;45.43;18.93;;;;;;;;;;4995986;28;20216;-76
2021/01/10 12:26:32;;;;;;;45.77;18.63;;;;;;;;;;4993705;28;20240;-74
2021/01/10 12:29:44;;;;;;;49.03;19.37;;;;;;;;;;4999974;28;20189;-74
2021/01/10 12:32:57;;;;;;;42.03;17.60;;;;;;;;;;5010814;28;20233;-74
2021/01/10 12:36:10;;;;;;;47.10;19.33;;;;;;;;;;5009299;28;20198;-73
2021/01/10 12:39:22;;;;;;;49.27;19.10;;;;;;;;;;5003273;28;20745;-75
2021/01/10 12:42:33;;;;;;;46.83;18.80;;;;;;;;;;4993259;28;20267;-75
2021/01/10 12:45:45;;;;;;;47.77;18.43;;;;;;;;;;4993503;28;20297;-74
2021/01/10 12:48:57;;;;;;;44.33;18.23;;;;;;;;;;4992537;28;20719;-75
2021/01/10 12:52:08;;;;;;;41.80;17.93;;;;;;;;;;4992357;28;20225;-75
2021/01/10 12:55:19;;;;;;;47.77;19.13;;;;;;;;;;4992010;28;20209;-75
2021/01/10 12:58:32;;;;;;;44.63;19.07;;;;;;;;;;4992977;28;20205;-74
2021/01/10 13:01:43;;;;;;;50.33;20.70;;;;;;;;;;4993187;28;20249;-74
2021/01/10 13:04:55;;;;;;;47.13;19.40;;;;;;;;;;4992795;28;20213;-76
2021/01/10 13:08:06;;;;;;;44.50;18.73;;;;;;;;;;4992524;28;20741;-75
2021/01/10 13:11:21;;;;;;;46.27;19.47;;;;;;;;;;4991555;28;20233;-75
2021/01/10 13:14:32;;;;;;;43.17;17.63;;;;;;;;;;4992115;28;20800;-74
2021/01/10 13:17:44;;;;;;;47.07;18.40;;;;;;;;;;4992311;28;20241;-75
2021/01/10 13:20:56;;;;;;;45.07;18.70;;;;;;;;;;4992717;28;20237;-75
2021/01/10 13:24:07;;;;;;;50.33;18.77;;;;;;;;;;4992286;28;20248;-75
2021/01/10 13:27:19;;;;;;;46.60;18.13;;;;;;;;;;4991805;28;20201;-76
2021/01/10 13:30:31;;;;;;;45.33;19.03;;;;;;;;;;4992127;28;20217;-75
2021/01/10 13:33:42;;;;;;;43.83;18.93;;;;;;;;;;4991551;28;20611;-75
2021/01/10 13:36:53;;;;;;;46.20;18.93;;;;;;;;;;4991810;28;20213;-75
2021/01/10 13:40:04;;;;;;;49.00;20.27;;;;;;;;;;4991794;28;20209;-75
2021/01/10 13:43:16;;;;;;;49.90;20.27;;;;;;;;;;4991595;28;20207;-75
2021/01/10 13:46:27;;;;;;;47.93;20.40;;;;;;;;;;4991252;28;20221;-74
2021/01/10 13:49:38;;;;;;;47.57;20.07;;;;;;;;;;4991162;28;20284;-74
2021/01/10 13:52:50;;;;;;;64.13;24.23;;;;;;;;;;4991279;28;20268;-74
2021/01/10 13:56:01;;;;;;;47.00;19.30;;;;;;;;;;4992435;28;20296;-74
2021/01/10 13:59:14;;;;;;;46.73;18.93;;;;;;;;;;4991454;28;20344;-75
2021/01/10 14:02:25;;;;;;;45.57;18.03;;;;;;;;;;4991320;28;20307;-74
2021/01/10 14:05:40;;;;;;;46.63;18.80;;;;;;;;;;4991560;28;20197;-75
2021/01/10 14:08:51;;;;;;;48.83;18.70;;;;;;;;;;4992247;28;20647;-74
2021/01/10 14:12:03;;;;;;;49.83;18.07;;;;;;;;;;4991989;28;20229;-74
2021/01/10 14:15:16;;;;;;;45.87;19.07;;;;;;;;;;4991321;28;20213;-74
2021/01/10 14:18:28;;;;;;;45.53;18.67;;;;;;;;;;4990939;28;20209;-74
2021/01/10 14:21:39;;;;;;;49.27;20.00;;;;;;;;;;4991466;28;20229;-74
2021/01/10 14:24:49;;;;;;;48.30;19.13;;;;;;;;;;4994325;28;20212;-75
2021/01/10 14:28:01;;;;;;;44.80;18.57;;;;;;;;;;4995586;28;20304;-75
2021/01/10 14:31:13;;;;;;;47.50;18.70;;;;;;;;;;4998176;28;20260;-76
2021/01/10 14:34:25;;;;;;;50.57;19.43;;;;;;;;;;5010317;28;20272;-75
2021/01/10 14:37:36;;;;;;;52.27;20.20;;;;;;;;;;5009643;28;20579;-75
2021/01/10 14:40:47;;;;;;;60.70;22.23;;;;;;;;;;4996292;28;20209;-74
2021/01/10 14:43:58;;;;;;;47.37;19.07;;;;;;;;;;4996296;28;20216;-74
2021/01/10 14:47:10;;;;;;;52.47;20.50;;;;;;;;;;4995049;28;20268;-74
2021/01/10 14:50:21;;;;;;;46.73;19.30;;;;;;;;;;4994629;28;20724;-74
2021/01/10 14:53:31;;;;;;;55.53;20.33;;;;;;;;;;4994642;28;20578;-74
2021/01/10 14:56:44;;;;;;;51.73;21.07;;;;;;;;;;4995203;28;20268;-75
2021/01/10 14:59:56;;;;;;;69.57;26.00;;;;;;;;;;4994518;28;20209;-74
2021/01/10 15:03:08;;;;;;;62.20;23.87;;;;;;;;;;4994449;28;20260;-74
2021/01/10 15:06:19;;;;;;;55.37;21.70;;;;;;;;;;4994221;28;20209;-74
2021/01/10 15:09:36;;;;;;;50.73;20.90;;;;;;;;;;4994203;28;20236;-74
2021/01/10 15:12:46;;;;;;;50.27;20.00;;;;;;;;;;4994362;28;20229;-74
2021/01/10 15:15:58;;;;;;;50.20;19.27;;;;;;;;;;4994375;28;20217;-74
2021/01/10 15:19:10;;;;;;;47.83;19.60;;;;;;;;;;4994019;28;20642;-74
2021/01/10 15:22:20;;;;;;;51.43;20.83;;;;;;;;;;4993833;28;20221;-74
2021/01/10 15:25:32;;;;;;;44.10;18.40;;;;;;;;;;4995831;28;20236;-75
2021/01/10 15:28:44;;;;;;;52.90;20.73;;;;;;;;;;4996966;28;20292;-75
2021/01/10 15:31:57;;;;;;;47.83;20.70;;;;;;;;;;5015724;28;20240;-76
2021/01/10 15:35:10;;;;;;;47.37;19.37;;;;;;;;;;5006157;28;20228;-74
2021/01/10 15:38:21;;;;;;;54.30;20.33;;;;;;;;;;4996572;28;20686;-77
2021/01/10 15:41:33;;;;;;;48.17;18.97;;;;;;;;;;4994793;28;20296;-74
2021/01/10 15:44:44;;;;;;;49.33;19.27;;;;;;;;;;4994023;28;20246;-74
2021/01/10 15:47:55;;;;;;;47.23;19.07;;;;;;;;;;4994382;28;20626;-76
2021/01/10 15:51:08;;;;;;;45.33;18.17;;;;;;;;;;4994203;28;20232;-75
2021/01/10 15:54:20;;;;;;;46.43;19.00;;;;;;;;;;4993674;28;20586;-75
2021/01/10 15:57:31;;;;;;;51.73;20.27;;;;;;;;;;4993636;28;20185;-75
2021/01/10 16:00:42;;;;;;;45.90;20.03;;;;;;;;;;4993469;28;20571;-76
2021/01/10 16:03:54;;;;;;;49.00;19.13;;;;;;;;;;4994505;28;20212;-75
2021/01/10 16:07:07;;;;;;;53.20;20.37;;;;;;;;;;4993861;28;20252;-75
2021/01/10 16:10:18;;;;;;;51.00;19.97;;;;;;;;;;4994063;28;20280;-76
2021/01/10 16:13:29;;;;;;;50.97;20.17;;;;;;;;;;4993433;28;20209;-74
2021/01/10 16:16:40;;;;;;;50.40;20.87;;;;;;;;;;4993582;28;20575;-75
2021/01/10 16:19:51;;;;;;;51.90;20.53;;;;;;;;;;4993544;28;20189;-75
2021/01/10 16:23:04;;;;;;;57.30;21.70;;;;;;;;;;4993960;28;20213;-75
2021/01/10 16:26:18;;;;;;;53.70;22.27;;;;;;;;;;4993741;28;20209;-75
2021/01/10 16:29:30;;;;;;;51.00;20.43;;;;;;;;;;4993368;28;20288;-76
2021/01/10 16:32:41;;;;;;;54.50;20.87;;;;;;;;;;4993771;28;20312;-75
2021/01/10 16:35:53;;;;;;;53.80;21.73;;;;;;;;;;4997186;28;20235;-77
2021/01/10 16:39:06;;;;;;;57.30;21.87;;;;;;;;;;4998647;28;20336;-75
2021/01/10 16:42:18;;;;;;;52.37;21.40;;;;;;;;;;4999857;28;20224;-74
2021/01/10 16:45:30;;;;;;;54.40;21.63;;;;;;;;;;5004248;28;20347;-74
2021/01/10 16:48:41;;;;;;;53.67;21.53;;;;;;;;;;5003844;28;20240;-75
2021/01/10 16:51:52;;;;;;;64.10;24.80;;;;;;;;;;4994294;28;20321;-75
2021/01/10 16:55:05;;;;;;;63.57;24.67;;;;;;;;;;4993412;28;20297;-74
2021/01/10 16:58:17;;;;;;;56.27;22.77;;;;;;;;;;4992715;28;20240;-76
2021/01/10 17:01:28;;;;;;;52.63;21.40;;;;;;;;;;4992316;28;20257;-74
2021/01/10 17:04:39;;;;;;;52.60;20.63;;;;;;;;;;4993994;28;20208;-75
2021/01/10 17:07:50;;;;;;;55.57;21.87;;;;;;;;;;4993751;28;20212;-76
2021/01/10 17:11:03;;;;;;;55.23;21.27;;;;;;;;;;4992617;28;20279;-76
2021/01/10 17:14:16;;;;;;;70.60;28.27;;;;;;;;;;4992200;28;20216;-76
2021/01/10 17:17:31;;;;;;;105.60;33.63;;;;;;;;;;4993032;28;20200;-75
2021/01/10 17:20:43;;;;;;;94.67;32.83;;;;;;;;;;4992309;28;20561;-74
2021/01/10 17:23:57;;;;;;;58.43;23.07;;;;;;;;;;4992643;28;20216;-75
2021/01/10 17:27:08;;;;;;;63.80;25.17;;;;;;;;;;4992400;28;20255;-75
2021/01/10 17:30:20;;;;;;;80.57;28.90;;;;;;;;;;4991820;28;20286;-76
2021/01/10 17:33:32;;;;;;;59.00;25.60;;;;;;;;;;4991961;28;20209;-75
2021/01/10 17:36:43;;;;;;;53.17;21.60;;;;;;;;;;4993312;28;20336;-75
2021/01/10 17:39:54;;;;;;;57.57;21.97;;;;;;;;;;4991668;28;20213;-74
2021/01/10 17:43:06;;;;;;;50.70;20.00;;;;;;;;;;4992873;28;20205;-75
2021/01/10 17:46:18;;;;;;;56.73;21.20;;;;;;;;;;4992116;28;20286;-75
2021/01/10 17:49:30;;;;;;;57.20;21.33;;;;;;;;;;4992150;28;20650;-75
2021/01/10 17:52:42;;;;;;;53.57;21.87;;;;;;;;;;4992067;28;20241;-76
2021/01/10 17:55:54;;;;;;;70.03;24.20;;;;;;;;;;4991394;28;20237;-76
2021/01/10 17:59:06;;;;;;;74.70;25.90;;;;;;;;;;4995606;28;20244;-76
2021/01/10 18:02:18;;;;;;;61.37;23.30;;;;;;;;;;4996515;28;20308;-75
2021/01/10 18:05:30;;;;;;;75.40;26.93;;;;;;;;;;4983982;28;20201;-75
2021/01/10 18:08:41;;;;;;;68.73;27.90;;;;;;;;;;4992650;28;20311;-77
2021/01/10 18:11:56;;;;;;;55.70;22.17;;;;;;;;;;4991039;28;20232;-77
2021/01/10 18:15:13;;;;;;;57.87;21.93;;;;;;;;;;4987485;28;20197;-75
2021/01/10 18:18:25;;;;;;;57.20;21.43;;;;;;;;;;4997694;28;20272;-74
2021/01/10 18:21:39;;;;;;;59.00;23.10;;;;;;;;;;4994486;28;20233;-75
2021/01/10 18:24:51;;;;;;;64.87;22.13;;;;;;;;;;4988294;28;20673;-75
2021/01/10 18:28:03;;;;;;;63.37;22.00;;;;;;;;;;4994388;28;20269;-74
2021/01/10 18:31:15;;;;;;;60.27;21.83;;;;;;;;;;4998307;28;20244;-76
2021/01/10 18:34:26;;;;;;;54.67;20.03;;;;;;;;;;4987011;28;20252;-75
2021/01/10 18:37:37;;;;;;;55.73;20.73;;;;;;;;;;4982130;28;20217;-76